Time;durP1;ratioP1;P1;durP2;ratioP2;P2;SDS_P1;SDS_P2;PMS_P1;PMS_P2;Temp;Humidity;BMP_temperature;BMP_pressure;BME280_temperature;BME280_humidity;BME280_pressure;Samples;Min_cycle;Max_cycle;Signal;HPM_P1;HPM_P2
2022/07/10 00:01:46;;;;;;;3.20;1.20;;;13.50;99.90;;;;;;4936632;29;20208;-57
2022/07/10 00:04:13;;;;;;;2.70;0.97;;;13.50;99.90;;;;;;4936177;29;20271;-57
2022/07/10 00:06:41;;;;;;;4.57;1.17;;;13.50;99.90;;;;;;4935396;29;20695;-59
2022/07/10 00:09:08;;;;;;;3.37;1.17;;;13.50;99.90;;;;;;4935994;29;20753;-56
2022/07/10 00:11:34;;;;;;;1.67;1.20;;;13.50;99.90;;;;;;4935763;29;20647;-59
2022/07/10 00:14:01;;;;;;;2.50;0.90;;;13.50;99.90;;;;;;4935629;29;20274;-58
2022/07/10 00:16:28;;;;;;;4.30;1.00;;;13.40;99.90;;;;;;4935413;29;20676;-59
2022/07/10 00:18:56;;;;;;;3.43;1.17;;;13.40;99.90;;;;;;4935399;29;20243;-57
2022/07/10 00:21:23;;;;;;;5.13;1.47;;;13.40;99.90;;;;;;4935853;29;20213;-59
2022/07/10 00:23:49;;;;;;;2.93;1.30;;;13.30;99.90;;;;;;4935525;29;20220;-60
2022/07/10 00:26:16;;;;;;;5.00;1.30;;;13.40;99.90;;;;;;4935045;29;20210;-60
2022/07/10 00:28:43;;;;;;;2.77;1.00;;;13.40;1.00;;;;;;4935224;29;20245;-60
2022/07/10 00:31:10;;;;;;;7.37;1.10;;;13.40;1.00;;;;;;4935587;29;20300;-60
2022/07/10 00:33:38;;;;;;;3.70;1.33;;;13.40;1.00;;;;;;4935459;29;20246;-58
2022/07/10 00:36:07;;;;;;;2.43;1.07;;;13.40;99.90;;;;;;4934978;29;20209;-60
2022/07/10 00:38:34;;;;;;;5.30;1.20;;;13.40;99.90;;;;;;4934583;29;20236;-60
2022/07/10 00:41:01;;;;;;;5.67;1.37;;;13.50;1.00;;;;;;4935107;29;20268;-60
2022/07/10 00:43:27;;;;;;;7.07;1.10;;;13.40;1.00;;;;;;4935360;29;20271;-60
2022/07/10 00:45:54;;;;;;;4.63;1.50;;;13.50;91.50;;;;;;4934930;29;20290;-60
2022/07/10 00:48:21;;;;;;;3.70;1.27;;;13.50;99.90;;;;;;4935056;29;20649;-60
2022/07/10 00:50:48;;;;;;;7.03;1.47;;;13.50;99.90;;;;;;4935010;29;20240;-58
2022/07/10 00:53:16;;;;;;;3.07;1.17;;;13.50;99.90;;;;;;4935090;29;20562;-60
2022/07/10 00:55:44;;;;;;;4.50;1.40;;;13.50;99.90;;;;;;4934814;29;20221;-59
2022/07/10 00:58:12;;;;;;;4.50;1.17;;;13.50;99.90;;;;;;4934846;29;20646;-60
2022/07/10 01:00:39;;;;;;;4.07;1.30;;;13.60;99.90;;;;;;4934900;29;20257;-60
2022/07/10 01:03:06;;;;;;;5.27;1.60;;;13.60;99.90;;;;;;4935098;29;20268;-59
2022/07/10 01:05:33;;;;;;;3.10;1.07;;;13.60;99.90;;;;;;4934846;29;20216;-59
2022/07/10 01:07:59;;;;;;;5.87;1.30;;;13.60;99.90;;;;;;4934313;29;20327;-58
2022/07/10 01:10:27;;;;;;;3.63;0.97;;;13.60;1.00;;;;;;4934704;29;20703;-57
2022/07/10 01:12:55;;;;;;;2.93;1.10;;;13.60;1.00;;;;;;4934882;29;20210;-60
2022/07/10 01:15:21;;;;;;;5.53;1.73;;;13.50;99.90;;;;;;4934809;29;20209;-60
2022/07/10 01:17:49;;;;;;;5.10;1.60;;;13.50;99.90;;;;;;4934482;29;20232;-58
2022/07/10 01:20:16;;;;;;;7.83;1.67;;;13.40;1.00;;;;;;4934736;29;20203;-60
2022/07/10 01:22:44;;;;;;;2.33;1.20;;;13.40;30.90;;;;;;4934608;29;20209;-57
2022/07/10 01:25:11;;;;;;;2.80;1.47;;;13.40;35.30;;;;;;4934681;29;20299;-59
2022/07/10 01:27:38;;;;;;;2.50;1.50;;;13.30;1.00;;;;;;4934106;29;20273;-59
2022/07/10 01:30:06;;;;;;;4.23;1.27;;;13.30;1.00;;;;;;4934723;29;20294;-61
2022/07/10 01:32:38;;;;;;;3.53;1.37;;;13.30;1.00;;;;;;4934625;29;20259;-60
2022/07/10 01:35:05;;;;;;;7.53;1.70;;;13.30;1.00;;;;;;4934547;29;20268;-57
2022/07/10 01:37:32;;;;;;;3.83;1.43;;;13.30;1.00;;;;;;4934438;29;20625;-61
2022/07/10 01:40:01;;;;;;;4.53;1.47;;;13.30;1.00;;;;;;4934410;29;20710;-61
2022/07/10 01:42:28;;;;;;;4.33;1.50;;;13.30;1.00;;;;;;4934650;29;20282;-61
2022/07/10 01:44:54;;;;;;;5.00;1.53;;;13.30;4.10;;;;;;4934522;29;20238;-60
2022/07/10 01:47:24;;;;;;;6.90;1.70;;;13.30;5.00;;;;;;4934167;29;20238;-59
2022/07/10 01:49:51;;;;;;;7.27;1.97;;;13.30;3.40;;;;;;4937038;29;20221;-60
2022/07/10 01:52:17;;;;;;;4.30;1.30;;;13.30;4.40;;;;;;4938354;29;20636;-60
2022/07/10 01:54:44;;;;;;;4.67;1.50;;;13.30;2.60;;;;;;4938303;29;20213;-61
2022/07/10 01:57:13;;;;;;;4.97;1.80;;;13.40;1.00;;;;;;4937975;29;20272;-60
2022/07/10 01:59:40;;;;;;;7.00;1.70;;;13.30;1.00;;;;;;4938380;29;20213;-61
2022/07/10 02:02:06;;;;;;;3.30;1.30;;;13.40;1.00;;;;;;4938338;29;20214;-61
2022/07/10 02:04:41;;;;;;;9.40;2.57;;;13.40;1.00;;;;;;4937881;29;20207;-61
2022/07/10 02:07:08;;;;;;;5.47;1.50;;;13.30;1.00;;;;;;4937755;29;20826;-61
2022/07/10 02:09:35;;;;;;;4.70;1.80;;;13.30;3.50;;;;;;4937949;29;20230;-61
2022/07/10 02:12:01;;;;;;;2.60;1.50;;;13.20;6.90;;;;;;4937993;29;20286;-61
2022/07/10 02:14:29;;;;;;;6.80;1.60;;;13.20;9.50;;;;;;4937978;29;20216;-59
2022/07/10 02:16:56;;;;;;;6.60;1.77;;;13.20;22.40;;;;;;4937424;29;20213;-58
2022/07/10 02:19:23;;;;;;;2.40;1.43;;;13.20;33.10;;;;;;4937989;29;20316;-59
2022/07/10 02:21:50;;;;;;;3.43;1.37;;;13.10;41.20;;;;;;4937969;29;20246;-59
2022/07/10 02:24:17;;;;;;;6.90;1.67;;;13.10;46.70;;;;;;4937898;29;20209;-59
2022/07/10 02:26:44;;;;;;;7.43;1.50;;;13.10;55.70;;;;;;4937321;29;20227;-58
2022/07/10 02:29:11;;;;;;;4.60;1.43;;;13.10;60.40;;;;;;4937465;29;20235;-59
2022/07/10 02:31:41;;;;;;;5.03;1.40;;;13.10;65.20;;;;;;4937882;29;20318;-58
2022/07/10 02:34:08;;;;;;;4.17;1.77;;;13.10;64.80;;;;;;4937959;29;20282;-60
2022/07/10 02:36:35;;;;;;;4.23;1.70;;;13.10;66.40;;;;;;4937266;29;20219;-56
2022/07/10 02:39:01;;;;;;;6.17;1.60;;;13.10;75.90;;;;;;4937258;29;20232;-55
2022/07/10 02:41:28;;;;;;;7.17;1.60;;;13.10;76.10;;;;;;4937797;29;20253;-57
2022/07/10 02:43:55;;;;;;;4.33;1.30;;;13.10;77.20;;;;;;4937779;29;20290;-60
2022/07/10 02:46:21;;;;;;;7.70;1.50;;;13.10;79.20;;;;;;4938092;29;20288;-59
2022/07/10 02:48:50;;;;;;;6.33;1.53;;;13.10;74.50;;;;;;4937711;29;20737;-59
2022/07/10 02:51:16;;;;;;;3.93;1.50;;;13.00;72.00;;;;;;4937386;29;20777;-59
2022/07/10 02:53:43;;;;;;;4.90;1.40;;;13.10;77.90;;;;;;4937600;29;20248;-59
2022/07/10 02:56:10;;;;;;;7.13;1.67;;;13.10;77.10;;;;;;4936939;29;20278;-60
2022/07/10 02:58:39;;;;;;;4.80;1.70;;;13.00;78.20;;;;;;4937039;29;20230;-58
2022/07/10 03:01:06;;;;;;;6.90;1.53;;;13.00;81.60;;;;;;4936747;29;20201;-60
2022/07/10 03:03:33;;;;;;;7.33;1.63;;;13.00;87.10;;;;;;4937313;29;20590;-60
2022/07/10 03:06:01;;;;;;;3.67;1.40;;;13.00;90.00;;;;;;4936622;29;20700;-59
2022/07/10 03:08:28;;;;;;;6.77;1.60;;;13.00;92.20;;;;;;4936799;29;20265;-60
2022/07/10 03:10:54;;;;;;;6.37;1.53;;;13.00;90.90;;;;;;4936866;29;20277;-60
2022/07/10 03:13:21;;;;;;;5.77;1.53;;;13.00;94.30;;;;;;4937136;29;20235;-59
2022/07/10 03:15:47;;;;;;;4.73;1.67;;;13.00;92.30;;;;;;4936991;29;20216;-60
2022/07/10 03:18:14;;;;;;;4.27;1.60;;;13.00;92.90;;;;;;4936599;29;20268;-60
2022/07/10 03:20:41;;;;;;;3.60;1.40;;;13.00;93.30;;;;;;4936797;29;20262;-60
2022/07/10 03:23:09;;;;;;;5.40;1.40;;;13.00;97.70;;;;;;4936806;29;20272;-60
2022/07/10 03:25:35;;;;;;;7.30;1.60;;;13.00;99.90;;;;;;4936459;29;20215;-59
2022/07/10 03:28:02;;;;;;;3.33;1.43;;;13.00;99.90;;;;;;4936313;29;20252;-56
2022/07/10 03:30:29;;;;;;;6.27;1.87;;;13.10;99.90;;;;;;4936662;29;20579;-55
2022/07/10 03:32:55;;;;;;;6.27;1.53;;;13.10;96.60;;;;;;4936621;29;20268;-57
2022/07/10 03:35:22;;;;;;;6.93;1.50;;;13.00;99.90;;;;;;4936692;29;20223;-59
2022/07/10 03:37:49;;;;;;;3.40;1.40;;;13.00;99.90;;;;;;4936034;29;20233;-59
2022/07/10 03:40:17;;;;;;;4.10;1.33;;;13.00;99.90;;;;;;4936274;29;20253;-59
2022/07/10 03:42:43;;;;;;;3.03;1.57;;;13.00;99.90;;;;;;4936534;29;20215;-56
2022/07/10 03:45:10;;;;;;;7.40;1.80;;;13.00;99.90;;;;;;4936427;29;20220;-56
2022/07/10 03:47:37;;;;;;;3.80;1.60;;;13.00;99.90;;;;;;4935917;29;20299;-57
2022/07/10 03:50:04;;;;;;;9.23;2.70;;;12.90;99.90;;;;;;4936146;29;20257;-57
2022/07/10 03:52:31;;;;;;;6.50;1.67;;;13.00;99.90;;;;;;4936034;29;20218;-57
2022/07/10 03:54:58;;;;;;;6.17;2.97;;;13.00;99.90;;;;;;4936076;29;20623;-59
2022/07/10 04:00:11;;;;;;;3.33;1.50;;;12.90;99.90;;;;;;4936173;29;20214;-60
2022/07/10 04:02:38;;;;;;;5.30;1.50;;;12.90;99.90;;;;;;4936156;29;20639;-61
2022/07/10 04:05:07;;;;;;;2.67;1.50;;;12.90;99.90;;;;;;4935912;29;20301;-60
2022/07/10 04:07:34;;;;;;;4.53;1.60;;;13.00;99.90;;;;;;4935591;29;20261;-61
2022/07/10 04:10:01;;;;;;;7.37;1.60;;;13.00;99.90;;;;;;4935899;29;20214;-61
2022/07/10 04:12:28;;;;;;;4.87;1.30;;;13.00;99.90;;;;;;4934609;28;20217;-61
2022/07/10 04:14:56;;;;;;;5.80;1.77;;;13.00;99.90;;;;;;4935907;29;20212;-61
2022/07/10 04:17:22;;;;;;;6.33;1.27;;;13.00;99.90;;;;;;4935298;29;20220;-61
2022/07/10 04:19:49;;;;;;;10.73;1.60;;;13.00;99.90;;;;;;4935613;29;20750;-61
2022/07/10 04:22:16;;;;;;;4.83;1.47;;;13.00;99.90;;;;;;4935474;29;20678;-60
2022/07/10 04:24:42;;;;;;;6.37;1.63;;;13.00;99.90;;;;;;4935742;29;20209;-61
2022/07/10 04:27:09;;;;;;;5.27;1.60;;;13.00;99.90;;;;;;4935261;29;20268;-60
2022/07/10 04:29:37;;;;;;;13.33;1.63;;;12.90;99.90;;;;;;4935467;29;20231;-60
2022/07/10 04:32:04;;;;;;;4.03;1.73;;;13.00;99.90;;;;;;4935407;29;20285;-61
2022/07/10 04:34:31;;;;;;;3.83;1.50;;;13.00;99.90;;;;;;4935386;29;20222;-59
2022/07/10 04:36:58;;;;;;;7.90;1.63;;;13.00;99.90;;;;;;4935083;29;20646;-61
2022/07/10 04:39:25;;;;;;;5.93;1.30;;;13.10;99.90;;;;;;4935543;29;20618;-58
2022/07/10 04:41:51;;;;;;;6.20;1.80;;;13.10;99.90;;;;;;4935445;29;20216;-61
2022/07/10 04:44:18;;;;;;;5.50;2.00;;;13.10;99.90;;;;;;4935124;29;20209;-60
2022/07/10 04:46:47;;;;;;;4.67;1.70;;;13.20;99.90;;;;;;4934959;29;20213;-61
2022/07/10 04:49:14;;;;;;;4.30;1.40;;;13.20;99.90;;;;;;4935272;29;20665;-61
2022/07/10 04:51:41;;;;;;;5.13;1.63;;;13.20;99.90;;;;;;4935179;29;20291;-59
2022/07/10 04:54:07;;;;;;;8.30;1.40;;;13.20;99.90;;;;;;4935119;29;20212;-61
2022/07/10 04:56:34;;;;;;;7.07;1.50;;;13.20;99.90;;;;;;4934958;29;20212;-60
2022/07/10 04:59:01;;;;;;;6.10;1.80;;;13.10;99.90;;;;;;4935148;29;20236;-59
2022/07/10 05:01:27;;;;;;;5.60;1.60;;;13.10;99.90;;;;;;4935085;29;20205;-61
2022/07/10 05:03:56;;;;;;;4.13;1.63;;;13.00;99.90;;;;;;4935279;29;20267;-60
2022/07/10 05:06:22;;;;;;;5.00;1.37;;;13.10;99.90;;;;;;4934655;29;20219;-60
2022/07/10 05:08:50;;;;;;;3.97;1.43;;;13.20;99.90;;;;;;4935179;29;20291;-61
2022/07/10 05:11:16;;;;;;;3.00;1.40;;;13.30;99.90;;;;;;4934967;29;20228;-60
2022/07/10 05:13:48;;;;;;;5.13;1.63;;;13.40;99.90;;;;;;4934938;29;20272;-59
2022/07/10 05:16:15;;;;;;;4.57;1.53;;;13.50;99.50;;;;;;4934822;29;20203;-61
2022/07/10 05:18:41;;;;;;;4.10;1.40;;;13.50;95.30;;;;;;4935125;29;20305;-60
2022/07/10 05:21:09;;;;;;;4.83;1.30;;;13.60;90.60;;;;;;4935072;29;20259;-61
2022/07/10 05:23:37;;;;;;;7.17;1.67;;;13.70;62.50;;;;;;4934315;29;20697;-61
2022/07/10 05:26:04;;;;;;;6.40;1.77;;;13.70;65.30;;;;;;4934506;29;20210;-62
2022/07/10 05:28:31;;;;;;;5.33;1.50;;;13.70;86.50;;;;;;4934390;29;20319;-60
2022/07/10 05:30:58;;;;;;;7.87;1.50;;;13.80;82.20;;;;;;4934818;29;20654;-60
2022/07/10 05:33:26;;;;;;;6.10;1.90;;;13.80;63.80;;;;;;4934705;29;20216;-60
2022/07/10 05:35:53;;;;;;;5.43;1.60;;;13.80;60.20;;;;;;4934515;29;20367;-60
2022/07/10 05:38:21;;;;;;;4.17;1.40;;;13.90;51.40;;;;;;4934600;29;20652;-56
2022/07/10 05:40:48;;;;;;;8.63;2.50;;;13.80;52.90;;;;;;4934708;29;20263;-57
2022/07/10 05:43:15;;;;;;;7.33;1.40;;;13.80;51.10;;;;;;4934492;29;20271;-59
2022/07/10 05:45:42;;;;;;;2.07;1.30;;;13.80;43.50;;;;;;4934788;29;20265;-60
2022/07/10 05:48:08;;;;;;;7.00;2.67;;;13.80;43.00;;;;;;4934053;29;20236;-60
2022/07/10 05:50:35;;;;;;;7.87;1.77;;;13.90;41.20;;;;;;4934453;29;20849;-60
2022/07/10 05:53:01;;;;;;;3.87;1.60;;;13.80;48.50;;;;;;4934547;29;20272;-59
2022/07/10 05:55:30;;;;;;;6.97;1.33;;;13.80;51.10;;;;;;4934230;29;20265;-60
2022/07/10 05:57:56;;;;;;;5.83;1.73;;;13.80;54.60;;;;;;4934297;29;20303;-60
2022/07/10 06:00:23;;;;;;;7.17;2.10;;;13.90;59.00;;;;;;4934629;29;20212;-58
2022/07/10 06:02:49;;;;;;;5.57;1.47;;;14.00;75.70;;;;;;4934603;29;20276;-61
2022/07/10 06:05:16;;;;;;;3.13;1.53;;;14.10;55.40;;;;;;4934599;29;20264;-56
2022/07/10 06:07:43;;;;;;;6.57;1.43;;;14.20;47.20;;;;;;4934052;29;20241;-58
2022/07/10 06:10:09;;;;;;;8.67;1.57;;;14.30;25.20;;;;;;4934234;29;20210;-55
2022/07/10 06:12:38;;;;;;;6.47;1.87;;;14.40;26.90;;;;;;4934348;29;20233;-57
2022/07/10 06:15:05;;;;;;;3.90;1.50;;;14.50;6.30;;;;;;4934383;29;20216;-59
2022/07/10 06:17:32;;;;;;;4.13;1.70;;;14.50;15.30;;;;;;4933943;29;20261;-59
2022/07/10 06:19:59;;;;;;;5.67;1.73;;;14.40;5.60;;;;;;4934369;29;20242;-57
2022/07/10 06:22:31;;;;;;;5.63;1.40;;;14.60;1.00;;;;;;4934223;29;20212;-61
2022/07/10 06:24:58;;;;;;;10.27;1.90;;;14.80;6.00;;;;;;4934554;29;20198;-61
2022/07/10 06:27:25;;;;;;;5.13;1.37;;;15.00;1.00;;;;;;4933742;29;20221;-60
2022/07/10 06:29:53;;;;;;;4.50;1.20;;;15.20;1.00;;;;;;4934194;29;20273;-58
2022/07/10 06:32:19;;;;;;;2.97;1.20;;;15.30;1.00;;;;;;4934158;29;20266;-61
2022/07/10 06:34:46;;;;;;;4.63;1.10;;;15.20;91.80;;;;;;4934386;29;20663;-56
2022/07/10 06:37:13;;;;;;;7.00;1.50;;;15.30;99.90;;;;;;4936605;29;20209;-61
2022/07/10 06:39:40;;;;;;;7.03;1.30;;;15.20;76.40;;;;;;4937847;29;20209;-58
2022/07/10 06:42:07;;;;;;;9.73;1.50;;;15.20;93.20;;;;;;4937368;29;20221;-60
2022/07/10 06:44:35;;;;;;;8.23;1.60;;;15.10;7.10;;;;;;4937670;29;20264;-58
2022/07/10 06:49:49;;;;;;;5.30;1.30;;;15.00;1.00;;;;;;4937416;29;20680;-61
2022/07/10 06:52:17;;;;;;;7.37;1.30;;;14.80;1.00;;;;;;4937420;29;20234;-61
2022/07/10 06:54:44;;;;;;;5.10;1.37;;;14.80;1.00;;;;;;4937451;29;20210;-61
2022/07/10 06:57:11;;;;;;;6.33;1.77;;;14.80;1.00;;;;;;4937070;29;20896;-61
2022/07/10 06:59:37;;;;;;;8.07;1.60;;;14.70;1.00;;;;;;4937409;29;20252;-61
2022/07/10 07:02:06;;;;;;;3.33;1.07;;;14.70;1.00;;;;;;4936965;29;20669;-61
2022/07/10 07:04:32;;;;;;;4.77;1.20;;;14.70;1.00;;;;;;4936925;29;20280;-58
2022/07/10 07:06:59;;;;;;;3.67;1.43;;;14.60;1.00;;;;;;4936916;29;20213;-61
2022/07/10 07:09:26;;;;;;;7.23;1.27;;;14.60;1.00;;;;;;4937372;29;20226;-61
2022/07/10 07:11:52;;;;;;;6.57;1.47;;;14.60;1.00;;;;;;4937206;29;20226;-61
2022/07/10 07:14:19;;;;;;;5.03;1.30;;;14.60;1.00;;;;;;4936871;29;20287;-60
2022/07/10 07:16:56;;;;;;;4.20;1.10;;;14.60;1.00;;;;;;4936428;29;20235;-61
2022/07/10 07:19:30;;;;;;;8.17;1.40;;;14.60;1.00;;;;;;4936828;29;20230;-60
2022/07/10 07:24:41;;;;;;;6.80;1.50;;;14.60;1.00;;;;;;4937099;29;20205;-60
2022/07/10 07:27:08;;;;;;;5.50;1.57;;;14.50;1.00;;;;;;4936413;29;20213;-58
2022/07/10 07:29:35;;;;;;;5.63;1.30;;;14.50;1.00;;;;;;4936883;29;20233;-60
2022/07/10 07:32:01;;;;;;;6.50;1.73;;;14.40;1.00;;;;;;4936735;29;20764;-60
2022/07/10 07:34:30;;;;;;;4.63;1.17;;;14.30;21.80;;;;;;4936681;29;20680;-61
2022/07/10 07:36:57;;;;;;;3.80;1.67;;;14.30;37.80;;;;;;4936187;29;20248;-60
2022/07/10 07:39:24;;;;;;;4.03;1.27;;;14.40;39.60;;;;;;4936238;29;20233;-60
2022/07/10 07:41:51;;;;;;;3.60;1.30;;;14.30;25.00;;;;;;4936267;29;20706;-60
2022/07/10 07:44:18;;;;;;;4.63;1.40;;;14.20;99.90;;;;;;4936657;29;20213;-60
2022/07/10 07:46:45;;;;;;;5.43;1.47;;;14.00;1.00;;;;;;4935752;29;20217;-60
2022/07/10 07:49:11;;;;;;;6.87;1.60;;;14.00;99.90;;;;;;4935239;29;20240;-61
2022/07/10 07:51:39;;;;;;;4.20;1.70;;;14.10;1.00;;;;;;4933469;29;20225;-60
2022/07/10 07:54:06;;;;;;;9.20;1.83;;;14.10;95.10;;;;;;4935526;29;20241;-60
2022/07/10 07:56:33;;;;;;;5.27;1.40;;;14.10;35.20;;;;;;4935310;29;20246;-60
2022/07/10 07:59:00;;;;;;;6.93;1.53;;;14.10;99.90;;;;;;4935911;29;20233;-60
2022/07/10 08:01:26;;;;;;;4.03;1.50;;;14.10;99.90;;;;;;4935894;29;20213;-59
2022/07/10 08:03:55;;;;;;;5.43;1.53;;;14.20;1.00;;;;;;4935708;29;20260;-59
2022/07/10 08:06:22;;;;;;;7.63;1.57;;;14.20;1.00;;;;;;4935343;29;20213;-58
2022/07/10 08:08:50;;;;;;;2.33;1.30;;;14.20;99.90;;;;;;4935536;29;20296;-61
2022/07/10 08:11:17;;;;;;;4.00;1.47;;;14.30;99.90;;;;;;4935487;29;20233;-60
2022/07/10 08:13:44;;;;;;;6.97;1.70;;;14.30;1.00;;;;;;4935406;29;20300;-60
2022/07/10 08:16:11;;;;;;;6.50;2.07;;;14.30;99.90;;;;;;4934949;29;20209;-58
2022/07/10 08:18:37;;;;;;;9.83;2.10;;;14.30;9.50;;;;;;4935471;29;20233;-53
2022/07/10 08:21:04;;;;;;;6.73;2.20;;;14.30;99.90;;;;;;4935314;29;20279;-54
2022/07/10 08:23:31;;;;;;;6.23;2.23;;;14.30;1.00;;;;;;4934968;29;20288;-57
2022/07/10 08:25:59;;;;;;;6.83;2.10;;;14.40;99.90;;;;;;4934964;29;20225;-57
2022/07/10 08:28:26;;;;;;;5.63;2.20;;;14.40;99.90;;;;;;4934979;29;20246;-55
2022/07/10 08:30:52;;;;;;;7.00;2.20;;;14.40;99.90;;;;;;4935221;29;20213;-58
2022/07/10 08:33:20;;;;;;;4.73;1.93;;;14.30;1.00;;;;;;4934880;29;20229;-58
2022/07/10 08:35:47;;;;;;;8.40;2.13;;;14.40;1.00;;;;;;4935135;29;20212;-58
2022/07/10 08:38:13;;;;;;;4.23;1.97;;;14.40;78.80;;;;;;4934778;29;20271;-61
2022/07/10 08:40:40;;;;;;;3.93;2.00;;;14.30;99.90;;;;;;4935243;29;20283;-58
2022/07/10 08:43:08;;;;;;;4.47;1.77;;;14.40;99.90;;;;;;4934797;29;20204;-58
2022/07/10 08:45:35;;;;;;;6.80;1.93;;;14.30;99.90;;;;;;4934940;29;20217;-58
2022/07/10 08:48:05;;;;;;;7.90;1.73;;;14.30;99.90;;;;;;4934374;29;20291;-61
2022/07/10 08:50:34;;;;;;;3.83;1.30;;;14.30;99.90;;;;;;4934719;29;20218;-61
2022/07/10 08:53:07;;;;;;;2.70;1.47;;;14.40;99.90;;;;;;4934586;29;20284;-60
2022/07/10 08:55:34;;;;;;;3.70;1.60;;;14.40;99.90;;;;;;4935015;29;20210;-57
2022/07/10 08:58:01;;;;;;;7.93;2.57;;;14.30;99.90;;;;;;4933143;29;20284;-63
2022/07/10 09:00:29;;;;;;;7.93;3.17;;;14.10;99.90;;;;;;4934640;29;20217;-63
2022/07/10 09:02:57;;;;;;;5.97;2.83;;;14.20;99.90;;;;;;4934219;29;20755;-62
2022/07/10 09:05:24;;;;;;;5.90;3.30;;;14.30;99.90;;;;;;4934701;29;20217;-60
2022/07/10 09:07:51;;;;;;;6.87;3.73;;;14.30;99.90;;;;;;4934110;29;20732;-60
2022/07/10 09:10:22;;;;;;;7.87;4.07;;;14.30;99.90;;;;;;4934663;29;20209;-62
2022/07/10 09:12:54;;;;;;;6.47;4.03;;;14.40;99.90;;;;;;4934262;29;20660;-62
2022/07/10 09:15:22;;;;;;;7.03;4.57;;;14.50;99.90;;;;;;4934312;29;20206;-62
2022/07/10 09:17:54;;;;;;;5.97;3.87;;;14.60;99.90;;;;;;4934115;29;20356;-61
2022/07/10 09:20:32;;;;;;;7.03;4.03;;;14.70;99.90;;;;;;4934209;29;20707;-61
2022/07/10 09:23:00;;;;;;;6.97;4.20;;;14.60;99.90;;;;;;4934464;29;20206;-59
2022/07/10 09:25:32;;;;;;;5.30;3.30;;;14.60;99.90;;;;;;4934475;29;20209;-62
2022/07/10 09:28:01;;;;;;;4.80;3.40;;;14.60;99.90;;;;;;4931574;29;20328;-62
2022/07/10 09:30:39;;;;;;;5.13;3.70;;;14.40;99.90;;;;;;4942494;29;20229;-67
2022/07/10 09:33:27;;;;;;;5.13;3.50;;;14.40;99.90;;;;;;4936465;29;20225;-64
2022/07/10 09:36:06;;;;;;;7.77;3.70;;;14.40;99.90;;;;;;4934235;29;20212;-65
2022/07/10 09:38:56;;;;;;;6.60;3.90;;;14.50;99.90;;;;;;4933042;29;20325;-64
2022/07/10 09:41:26;;;;;;;11.13;3.80;;;14.60;99.90;;;;;;4930975;29;20264;-60
2022/07/10 09:43:55;;;;;;;9.53;4.17;;;14.70;99.90;;;;;;4951607;29;20216;-59
2022/07/10 09:46:24;;;;;;;5.90;3.73;;;14.80;99.90;;;;;;4952973;29;20433;-60
2022/07/10 09:49:06;;;;;;;7.97;4.00;;;14.90;99.90;;;;;;4951783;29;20228;-60
2022/07/10 09:51:34;;;;;;;9.60;3.67;;;15.00;99.90;;;;;;4951543;28;20654;-61
2022/07/10 09:54:02;;;;;;;11.83;4.80;;;15.20;99.90;;;;;;4951244;29;20232;-61
2022/07/10 09:56:40;;;;;;;4.67;3.37;;;15.40;99.90;;;;;;4951150;29;20205;-59
2022/07/10 09:59:10;;;;;;;3.87;3.47;;;15.50;99.90;;;;;;4951509;29;20672;-58
2022/07/10 10:01:38;;;;;;;5.83;3.67;;;15.40;99.90;;;;;;4951483;29;20240;-59
2022/07/10 10:04:09;;;;;;;5.83;3.90;;;15.30;99.90;;;;;;4951502;29;20295;-58
2022/07/10 10:06:37;;;;;;;7.77;4.97;;;15.20;99.90;;;;;;4940598;29;20589;-59
2022/07/10 10:09:08;;;;;;;10.13;5.13;;;15.00;99.90;;;;;;4933824;29;20721;-59
2022/07/10 10:11:37;;;;;;;6.67;5.53;;;15.00;99.90;;;;;;4937380;29;20213;-58
2022/07/10 10:14:07;;;;;;;8.97;5.90;;;15.00;99.90;;;;;;4937311;29;20233;-64
2022/07/10 10:16:34;;;;;;;9.07;5.17;;;15.10;99.90;;;;;;4949313;29;20214;-63
2022/07/10 10:21:49;;;;;;;7.97;5.93;;;15.20;99.90;;;;;;4956473;29;20211;-60
2022/07/10 10:24:17;;;;;;;9.60;7.23;;;15.20;99.90;;;;;;4955868;29;20209;-59
2022/07/10 10:26:45;;;;;;;8.90;6.53;;;15.30;99.90;;;;;;4956301;29;20217;-61
2022/07/10 10:29:12;;;;;;;10.87;6.07;;;15.20;99.90;;;;;;4956672;29;20252;-60
2022/07/10 10:31:40;;;;;;;10.13;5.90;;;15.30;99.90;;;;;;4955271;29;20208;-59
2022/07/10 10:34:07;;;;;;;9.37;5.87;;;15.10;99.90;;;;;;4956451;29;20233;-59
2022/07/10 10:36:48;;;;;;;12.33;5.73;;;15.00;99.90;;;;;;4956146;29;20215;-62
2022/07/10 10:39:17;;;;;;;7.37;5.23;;;15.10;99.90;;;;;;4956565;29;20228;-62
2022/07/10 10:41:48;;;;;;;6.77;4.80;;;15.10;99.90;;;;;;4963073;29;20209;-62
2022/07/10 10:44:22;;;;;;;10.93;4.90;;;15.10;99.90;;;;;;4961033;29;20193;-62
2022/07/10 10:47:00;;;;;;;9.93;5.43;;;15.20;99.90;;;;;;4955452;29;20221;-62
2022/07/10 10:49:48;;;;;;;7.90;5.97;;;15.30;99.90;;;;;;4956108;29;20575;-62
2022/07/10 10:52:17;;;;;;;7.13;5.90;;;15.40;99.90;;;;;;4955772;29;20215;-63
2022/07/10 10:55:08;;;;;;;10.10;5.30;;;15.30;99.90;;;;;;4956181;29;20236;-63
2022/07/10 10:57:47;;;;;;;7.47;5.90;;;15.40;99.90;;;;;;4955431;29;20232;-65
2022/07/10 11:00:29;;;;;;;8.97;6.07;;;15.40;99.90;;;;;;4956021;28;20244;-58
2022/07/10 11:03:14;;;;;;;10.00;5.80;;;15.50;99.90;;;;;;4955424;29;20243;-60
2022/07/10 11:05:45;;;;;;;9.37;6.40;;;15.40;99.90;;;;;;4955750;29;20295;-60
2022/07/10 11:08:14;;;;;;;13.33;10.00;;;15.50;99.90;;;;;;4955545;29;20239;-58
2022/07/10 11:10:43;;;;;;;18.23;10.87;;;15.60;99.90;;;;;;4956062;29;20213;-60
2022/07/10 11:13:10;;;;;;;17.97;12.60;;;15.70;99.90;;;;;;4955186;29;20268;-58
2022/07/10 11:15:39;;;;;;;18.00;12.60;;;15.70;99.90;;;;;;4955573;29;20244;-59
2022/07/10 11:18:07;;;;;;;21.13;14.90;;;15.70;99.90;;;;;;4955361;29;20233;-59
2022/07/10 11:20:35;;;;;;;22.43;14.73;;;15.80;99.90;;;;;;4955239;29;20260;-57
2022/07/10 11:23:28;;;;;;;19.27;13.70;;;15.80;99.90;;;;;;4954898;28;20264;-57
2022/07/10 11:26:07;;;;;;;20.80;13.67;;;15.80;99.90;;;;;;4951365;28;20208;-58
2022/07/10 11:28:47;;;;;;;19.80;14.23;;;15.70;99.90;;;;;;4955072;29;20232;-59
2022/07/10 11:31:14;;;;;;;19.93;14.13;;;15.80;99.90;;;;;;4955249;28;20197;-66
2022/07/10 11:33:43;;;;;;;19.73;14.70;;;16.00;99.90;;;;;;4955461;29;20225;-64
2022/07/10 11:36:14;;;;;;;20.47;14.20;;;16.20;99.90;;;;;;4955203;29;20220;-63
2022/07/10 11:38:41;;;;;;;18.70;13.73;;;16.60;99.90;;;;;;4954973;29;20232;-67
2022/07/10 11:41:17;;;;;;;18.40;12.63;;;16.90;99.90;;;;;;4954881;29;20676;-66
2022/07/10 11:43:51;;;;;;;16.20;12.43;;;17.10;99.90;;;;;;4955442;29;20894;-67
2022/07/10 11:46:20;;;;;;;15.43;10.90;;;17.20;99.90;;;;;;4955084;29;20216;-66
2022/07/10 11:48:47;;;;;;;11.13;8.63;;;17.20;99.90;;;;;;4954927;29;20267;-66
2022/07/10 11:51:24;;;;;;;12.00;8.40;;;17.20;99.90;;;;;;4954692;29;20710;-66
2022/07/10 11:53:56;;;;;;;10.13;6.13;;;17.30;99.90;;;;;;4954890;29;20233;-63
2022/07/10 11:56:24;;;;;;;6.90;5.63;;;17.40;99.90;;;;;;4954494;29;20213;-63
2022/07/10 11:58:56;;;;;;;7.33;5.97;;;17.30;99.90;;;;;;4954984;29;20241;-64
2022/07/10 12:01:22;;;;;;;5.77;4.93;;;17.30;99.90;;;;;;4954587;29;20209;-64
2022/07/10 12:03:56;;;;;;;7.57;5.83;;;17.20;99.90;;;;;;4955430;29;20236;-66
2022/07/10 12:06:24;;;;;;;6.43;5.03;;;16.90;99.90;;;;;;4954487;29;20300;-64
2022/07/10 12:08:51;;;;;;;5.97;4.83;;;16.80;99.90;;;;;;4954834;29;20316;-64
2022/07/10 12:11:20;;;;;;;3.63;3.03;;;16.40;99.90;;;;;;4954425;29;20213;-65
2022/07/10 12:13:50;;;;;;;2.90;2.57;;;16.40;99.90;;;;;;4954707;29;20232;-64
2022/07/10 12:16:17;;;;;;;8.50;6.30;;;16.50;99.90;;;;;;4954355;29;20213;-65
2022/07/10 12:18:46;;;;;;;3.90;2.47;;;16.60;99.90;;;;;;4954373;29;20315;-61
2022/07/10 12:21:14;;;;;;;3.10;2.47;;;16.50;99.90;;;;;;4954287;29;20213;-60
2022/07/10 12:23:43;;;;;;;3.03;2.00;;;16.40;99.90;;;;;;4954255;29;20209;-66
2022/07/10 12:26:10;;;;;;;2.10;1.90;;;16.40;99.90;;;;;;4954282;29;20221;-64
2022/07/10 12:28:55;;;;;;;2.27;2.07;;;16.30;99.90;;;;;;4953457;29;20327;-64
2022/07/10 12:31:27;;;;;;;2.60;2.23;;;16.30;99.90;;;;;;4954060;29;20860;-65
2022/07/10 12:33:57;;;;;;;1.70;1.50;;;16.40;99.90;;;;;;4953400;28;20729;-64
2022/07/10 12:36:25;;;;;;;2.00;1.70;;;16.70;99.90;;;;;;4953875;29;20260;-64
2022/07/10 12:38:58;;;;;;;2.33;1.70;;;16.90;99.90;;;;;;4953987;29;20232;-62
2022/07/10 12:41:26;;;;;;;2.00;1.80;;;17.20;99.90;;;;;;4953642;29;20219;-64
2022/07/10 12:43:55;;;;;;;2.10;1.90;;;17.40;99.90;;;;;;4953806;29;20213;-62
2022/07/10 12:46:23;;;;;;;3.43;2.40;;;17.40;99.90;;;;;;4953839;29;20642;-62
2022/07/10 12:49:03;;;;;;;2.67;2.43;;;17.50;99.90;;;;;;4953997;29;20279;-62
2022/07/10 12:51:31;;;;;;;3.30;2.43;;;17.60;99.90;;;;;;4953576;29;20209;-63
2022/07/10 12:53:59;;;;;;;2.60;2.10;;;17.70;99.90;;;;;;4953731;29;20228;-63
2022/07/10 12:56:29;;;;;;;4.13;2.20;;;17.50;99.90;;;;;;4953478;29;20271;-62
2022/07/10 12:58:59;;;;;;;3.00;2.20;;;17.20;99.90;;;;;;4953805;29;20245;-62
2022/07/10 13:01:27;;;;;;;2.90;1.53;;;17.30;99.90;;;;;;4953650;29;20672;-62
2022/07/10 13:04:01;;;;;;;1.90;1.30;;;17.40;99.90;;;;;;4953739;29;20240;-62
2022/07/10 13:06:29;;;;;;;1.83;1.30;;;17.60;99.90;;;;;;4953406;29;20224;-64